Time;durP1;ratioP1;P1;durP2;ratioP2;P2;SDS_P1;SDS_P2;PMS_P1;PMS_P2;Temp;Humidity;BMP_temperature;BMP_pressure;BME280_temperature;BME280_humidity;BME280_pressure;Samples;Min_cycle;Max_cycle;Signal;HPM_P1;HPM_P2
2021/04/16 00:00:38;;;;;;;3.52;2.17;;;;;;;8.18;78.94;98999.22;1721269;82;21577;-66
2021/04/16 00:03:06;;;;;;;;;;;;;;;8.20;78.89;99005.17;1746817;80;21488;-66
2021/04/16 00:05:36;;;;;;;3.58;2.40;;;;;;;8.15;78.97;98996.24;1755109;82;20188;-66
2021/04/16 00:08:14;;;;;;;3.15;2.10;;;;;;;8.05;79.35;99001.66;1743638;80;21295;-67
2021/04/16 00:10:43;;;;;;;;;;;;;;;8.08;79.29;99001.92;1753348;82;21117;-66
2021/04/16 00:13:13;;;;;;;3.58;2.60;;;;;;;8.11;79.27;99002.75;1746591;80;20281;-66
2021/04/16 00:15:41;;;;;;;3.95;2.75;;;;;;;8.02;79.55;99004.38;1743029;80;21121;-67
2021/04/16 00:18:11;;;;;;;3.60;2.70;;;;;;;7.97;79.58;98999.77;1747348;80;21359;-66
2021/04/16 00:20:39;;;;;;;5.25;3.12;;;;;;;8.01;79.48;99001.39;1744237;82;21117;-66
2021/04/16 00:23:07;;;;;;;4.33;3.00;;;;;;;8.05;79.47;99000.30;1744091;80;21314;-66
2021/04/16 00:25:35;;;;;;;3.70;2.77;;;;;;;8.08;79.44;99001.92;1743687;80;21585;-67
2021/04/16 00:28:03;;;;;;;3.98;3.00;;;;;;;8.07;79.51;98998.96;1742855;80;21593;-66
2021/04/16 00:30:42;;;;;;;4.35;2.90;;;;;;;8.04;79.69;99004.12;1747598;82;21581;-67
2021/04/16 00:33:09;;;;;;;3.00;2.45;;;;;;;8.06;79.53;99001.39;1744043;80;21180;-66
2021/04/16 00:35:39;;;;;;;3.00;2.02;;;;;;;8.14;79.41;99001.39;1739567;80;21141;-67
2021/04/16 00:38:08;;;;;;;3.92;2.90;;;;;;;8.19;79.24;98996.75;1754834;82;21159;-67
2021/04/16 00:40:42;;;;;;;4.17;2.70;;;;;;;8.14;79.28;98995.43;1723866;82;21275;-67
2021/04/16 00:43:10;;;;;;;3.60;2.35;;;;;;;8.09;79.41;98995.42;1742937;82;21204;-66
2021/04/16 00:45:39;;;;;;;5.58;2.67;;;;;;;8.11;79.45;98994.63;1747901;80;21645;-65
2021/04/16 00:48:27;;;;;;;3.47;2.47;;;;;;;8.12;79.50;98988.63;1747594;81;21291;-65
2021/04/16 00:50:58;;;;;;;3.67;2.75;;;;;;;8.09;79.56;98990.00;1746405;80;21134;-65
2021/04/16 00:53:27;;;;;;;4.40;3.02;;;;;;;8.07;79.76;98992.72;1749514;80;21152;-65
2021/04/16 00:55:55;;;;;;;4.00;2.92;;;;;;;8.09;79.79;98998.13;1754422;80;21177;-65
2021/04/16 00:58:25;;;;;;;4.33;2.87;;;;;;;8.12;79.63;98993.52;1750841;80;21197;-65
2021/04/16 01:00:55;;;;;;;3.70;2.67;;;;;;;8.16;79.54;98997.31;1745214;82;21134;-65
2021/04/16 01:03:25;;;;;;;5.67;3.10;;;;;;;8.19;79.52;98987.80;1742218;82;21585;-65
2021/04/16 01:05:55;;;;;;;4.70;2.92;;;;;;;8.15;79.61;98995.67;1740862;82;21586;-65
2021/04/16 01:08:23;;;;;;;3.50;2.70;;;;;;;8.19;79.54;98991.33;1743030;80;21176;-65
2021/04/16 01:10:51;;;;;;;4.53;2.42;;;;;;;8.22;79.36;98988.07;1745195;82;21193;-65
2021/04/16 01:13:21;;;;;;;4.05;2.60;;;;;;;8.18;79.46;98988.37;1744918;82;21319;-66
2021/04/16 01:15:58;;;;;;;3.98;2.60;;;;;;;8.14;79.63;98992.72;1724249;82;21515;-66
2021/04/16 01:18:28;;;;;;;4.97;2.17;;;;;;;8.12;79.63;98991.34;1665460;86;21212;-66
2021/04/16 01:20:58;;;;;;;5.58;2.75;;;;;;;8.15;79.57;98992.96;1714001;84;21170;-66
2021/04/16 01:23:49;;;;;;;7.83;3.77;;;;;;;8.17;79.53;98987.28;1720784;82;21157;-66
2021/04/16 01:26:20;;;;;;;4.92;3.02;;;;;;;8.15;79.71;98984.83;1745036;81;21647;-66
2021/04/16 01:28:49;;;;;;;4.67;3.52;;;;;;;8.10;79.83;98992.17;1745297;82;21311;-66
2021/04/16 01:31:19;;;;;;;4.35;2.87;;;;;;;8.09;79.78;98990.00;1745104;81;21185;-66
2021/04/16 01:33:49;;;;;;;3.67;2.02;;;;;;;8.16;79.66;98995.13;1742624;82;21174;-66
2021/04/16 01:36:22;;;;;;;4.28;2.65;;;;;;;8.20;79.57;98994.33;1664155;86;21180;-66
2021/04/16 01:38:49;;;;;;;3.05;2.15;;;;;;;8.17;79.59;98992.70;1739628;82;21639;-66
2021/04/16 01:41:17;;;;;;;4.62;2.40;;;;;;;8.11;79.79;98989.20;1736695;81;21185;-66
2021/04/16 01:43:59;;;;;;;3.40;2.27;;;;;;;8.09;79.81;98985.12;1726453;82;21145;-66
2021/04/16 01:46:28;;;;;;;3.67;2.42;;;;;;;8.12;79.72;98987.28;1709568;82;21157;-66
2021/04/16 01:48:59;;;;;;;3.77;2.47;;;;;;;8.15;79.66;98985.40;1665586;86;21640;-66
2021/04/16 01:51:33;;;;;;;4.53;2.67;;;;;;;8.08;79.74;98986.23;1731329;82;21219;-66
2021/04/16 01:54:11;;;;;;;4.62;3.20;;;;;;;8.03;79.92;98980.80;1745362;82;21186;-66
2021/04/16 01:56:42;;;;;;;5.22;3.10;;;;;;;8.01;79.90;98977.81;1737825;82;21580;-66
2021/04/16 01:59:15;;;;;;;4.67;3.05;;;;;;;7.99;79.94;98977.28;1723814;82;21162;-66
2021/04/16 02:01:43;;;;;;;5.20;3.40;;;;;;;7.99;79.86;98967.80;1740581;80;21190;-66
2021/04/16 02:04:12;;;;;;;5.47;3.67;;;;;;;7.93;79.96;98974.32;1731922;82;21581;-66
2021/04/16 02:06:40;;;;;;;4.58;3.30;;;;;;;7.91;80.01;98971.05;1746457;80;21125;-66
2021/04/16 02:09:11;;;;;;;4.67;3.45;;;;;;;7.94;79.92;98973.21;1740825;80;21145;-66
2021/04/16 02:11:39;;;;;;;5.25;3.62;;;;;;;7.96;79.83;98972.41;1733835;80;21165;-66
2021/04/16 02:14:11;;;;;;;3.85;2.77;;;;;;;7.95;79.90;98976.20;1741137;80;21165;-66
2021/04/16 02:16:43;;;;;;;3.92;2.62;;;;;;;7.88;80.06;98972.95;1738597;80;21189;-66
2021/04/16 02:19:12;;;;;;;3.77;2.70;;;;;;;7.86;80.13;98972.97;1739488;82;21130;-66
2021/04/16 02:21:41;;;;;;;3.90;2.50;;;;;;;7.86;79.99;98969.72;1732751;82;21165;-66
2021/04/16 02:24:09;;;;;;;4.40;2.60;;;;;;;7.88;79.97;98976.20;1722179;80;21802;-67
2021/04/16 02:26:36;;;;;;;3.25;2.20;;;;;;;7.92;79.96;98965.09;1741102;80;21473;-66
2021/04/16 02:29:08;;;;;;;4.42;2.50;;;;;;;7.87;79.98;98967.80;1740760;80;21707;-66
2021/04/16 02:31:36;;;;;;;2.72;1.72;;;;;;;7.81;80.04;98970.25;1739716;80;21169;-66
2021/04/16 02:34:03;;;;;;;3.83;2.50;;;;;;;7.82;80.17;98971.87;1722560;80;21145;-66
2021/04/16 02:36:31;;;;;;;3.75;2.67;;;;;;;7.84;79.96;98971.05;1740197;80;21326;-64
2021/04/16 02:38:58;;;;;;;2.70;1.98;;;;;;;7.84;79.92;98969.16;1691351;82;21158;-66
2021/04/16 02:41:25;;;;;;;5.92;2.60;;;;;;;7.80;80.05;98967.26;1741044;80;21180;-65
2021/04/16 02:43:53;;;;;;;4.35;2.75;;;;;;;7.79;80.09;98964.30;1740194;80;21148;-65
2021/04/16 02:46:21;;;;;;;3.72;2.50;;;;;;;7.81;79.98;98965.64;1740589;80;21749;-65
2021/04/16 02:48:49;;;;;;;4.65;2.90;;;;;;;7.83;79.85;98965.39;1741041;80;21201;-65
2021/04/16 02:51:17;;;;;;;3.77;3.02;;;;;;;7.76;79.92;98965.64;1740697;82;21185;-66
2021/04/16 02:53:44;;;;;;;4.50;3.22;;;;;;;7.71;80.17;98971.08;1740456;82;21177;-66
2021/04/16 02:56:12;;;;;;;4.10;2.80;;;;;;;7.73;80.14;98966.19;1731680;82;21185;-65
2021/04/16 02:58:40;;;;;;;3.62;2.65;;;;;;;7.75;80.04;98964.03;1740870;82;21331;-65
2021/04/16 03:01:07;;;;;;;4.15;2.72;;;;;;;7.77;79.99;98969.98;1740352;80;21117;-65
2021/04/16 03:03:35;;;;;;;3.87;3.10;;;;;;;7.72;80.12;98966.47;1740209;80;21304;-65
2021/04/16 03:06:05;;;;;;;4.72;3.30;;;;;;;7.68;80.19;98968.91;1715469;82;21219;-65
2021/04/16 03:08:33;;;;;;;4.35;3.37;;;;;;;7.71;80.09;98975.67;1738508;81;21166;-65
2021/04/16 03:11:00;;;;;;;4.12;3.08;;;;;;;7.72;80.14;98976.73;1741971;81;21193;-65
2021/04/16 03:13:28;;;;;;;4.30;3.17;;;;;;;7.69;80.17;98969.70;1740749;82;21333;-65
2021/04/16 03:15:56;;;;;;;4.08;3.27;;;;;;;7.70;80.23;98969.44;1740482;80;21193;-66
2021/04/16 03:18:24;;;;;;;6.40;3.65;;;;;;;7.66;80.42;98975.66;1744981;80;21168;-66
2021/04/16 03:20:52;;;;;;;4.50;3.05;;;;;;;7.65;80.46;98970.78;1741892;80;21703;-66
2021/04/16 03:23:20;;;;;;;5.67;3.60;;;;;;;7.68;80.35;98974.33;1740632;82;21134;-66
2021/04/16 03:25:47;;;;;;;4.45;3.27;;;;;;;7.72;80.25;98969.97;1741227;82;21122;-66
2021/04/16 03:28:15;;;;;;;4.78;3.33;;;;;;;7.57;80.28;98946.16;1741043;82;21581;-66
2021/04/16 03:30:42;;;;;;;4.72;3.08;;;;;;;7.69;80.36;98977.83;1740534;82;21166;-66
2021/04/16 03:33:10;;;;;;;4.92;3.25;;;;;;;7.72;80.30;98978.66;1743703;80;21164;-66
2021/04/16 03:35:37;;;;;;;3.87;3.08;;;;;;;7.72;80.15;98975.39;1741543;80;21292;-66
2021/04/16 03:38:05;;;;;;;4.03;3.25;;;;;;;7.73;80.06;98978.91;1741128;80;21656;-67
2021/04/16 03:40:32;;;;;;;4.55;3.20;;;;;;;7.69;80.07;98975.11;1739932;82;21153;-66
2021/04/16 03:43:00;;;;;;;5.10;3.98;;;;;;;7.67;80.00;98984.06;1745589;80;21145;-66
2021/04/16 03:45:27;;;;;;;5.95;3.77;;;;;;;7.57;80.16;98976.77;1741115;80;21190;-66
2021/04/16 03:47:55;;;;;;;4.35;3.42;;;;;;;7.57;80.14;98979.47;1742115;80;21826;-66
2021/04/16 03:50:27;;;;;;;5.05;3.70;;;;;;;7.60;80.03;98981.63;1747256;80;21171;-66
2021/04/16 03:52:54;;;;;;;5.22;4.22;;;;;;;7.62;80.02;98982.16;1745557;80;21333;-66
2021/04/16 03:55:24;;;;;;;6.10;4.08;;;;;;;7.55;80.13;98980.27;1740496;82;21315;-66
2021/04/16 03:57:53;;;;;;;17.82;12.58;;;;;;;7.54;80.20;98980.55;1705343;84;21344;-66
2021/04/16 04:00:25;;;;;;;8.75;6.60;;;;;;;7.60;80.09;98980.28;1673341;85;21194;-66
2021/04/16 04:02:52;;;;;;;6.28;4.90;;;;;;;7.63;79.96;98978.91;1675562;85;21758;-66
2021/04/16 04:05:20;;;;;;;5.50;4.10;;;;;;;7.61;79.96;98981.09;1675053;84;21165;-66
2021/04/16 04:07:47;;;;;;;5.75;4.75;;;;;;;7.57;80.11;98985.42;1747378;82;21714;-66
2021/04/16 04:10:17;;;;;;;5.65;4.33;;;;;;;7.61;80.11;98989.22;1749680;81;21149;-66
2021/04/16 04:12:46;;;;;;;5.12;4.17;;;;;;;7.62;79.90;98985.41;1742490;81;21149;-67
2021/04/16 04:15:14;;;;;;;5.17;3.83;;;;;;;7.61;79.87;98987.87;1715539;82;21165;-66
2021/04/16 04:17:42;;;;;;;5.65;3.75;;;;;;;7.62;79.91;98982.16;1735237;81;21176;-66
2021/04/16 04:20:18;;;;;;;4.45;3.52;;;;;;;7.60;79.92;98990.30;1746237;82;21298;-67
2021/04/16 04:22:47;;;;;;;4.30;3.60;;;;;;;7.61;79.89;98992.75;1745394;81;21162;-66
2021/04/16 04:25:19;;;;;;;6.70;3.65;;;;;;;7.63;79.62;98991.11;1747916;81;21177;-66
2021/04/16 04:27:48;;;;;;;5.17;3.62;;;;;;;7.65;79.58;98987.03;1747292;81;21165;-66
2021/04/16 04:30:16;;;;;;;8.23;3.75;;;;;;;7.64;79.47;98992.73;1736418;81;21173;-66
2021/04/16 04:32:45;;;;;;;5.33;3.83;;;;;;;7.58;79.70;98989.77;1730450;82;21195;-66
2021/04/16 04:35:13;;;;;;;5.72;3.87;;;;;;;7.61;79.66;98994.64;1730376;82;21312;-66
2021/04/16 04:37:40;;;;;;;6.15;3.80;;;;;;;7.65;79.58;98993.02;1745903;82;21218;-66
2021/04/16 04:40:09;;;;;;;4.62;3.47;;;;;;;7.69;79.43;98998.14;1731110;81;21335;-66
2021/04/16 04:42:37;;;;;;;4.78;3.40;;;;;;;7.69;79.23;98993.55;1728151;81;21749;-65
2021/04/16 04:45:06;;;;;;;4.58;3.35;;;;;;;7.71;79.24;98991.39;1690501;84;21323;-65
2021/04/16 04:47:33;;;;;;;4.87;3.70;;;;;;;7.69;79.14;98999.50;1711714;84;21626;-66
2021/04/16 04:50:01;;;;;;;4.83;3.30;;;;;;;7.74;79.07;98995.45;1687710;84;21144;-66
2021/04/16 04:52:32;;;;;;;4.15;3.12;;;;;;;7.80;78.87;98994.35;1740647;81;21198;-66
2021/04/16 04:55:01;;;;;;;8.33;3.70;;;;;;;7.80;78.70;98998.42;1731755;82;21308;-66
2021/04/16 04:57:28;;;;;;;4.83;3.33;;;;;;;7.76;78.79;99002.78;1719537;81;21509;-66
2021/04/16 04:59:56;;;;;;;7.00;5.03;;;;;;;7.76;78.54;98991.94;1716317;82;21330;-66
2021/04/16 05:02:24;;;;;;;6.95;4.72;;;;;;;7.77;78.39;98990.30;1751351;80;21697;-66
2021/04/16 05:04:52;;;;;;;4.90;3.83;;;;;;;7.79;78.36;98990.86;1752130;82;21755;-66
2021/04/16 05:07:21;;;;;;;9.15;6.55;;;;;;;7.84;78.55;98990.84;1751354;80;21315;-66
2021/04/16 05:09:48;;;;;;;6.55;4.47;;;;;;;7.86;78.58;98987.87;1722856;83;21734;-66
2021/04/16 05:12:16;;;;;;;5.40;3.80;;;;;;;7.91;78.41;98990.02;1727388;80;21172;-66
2021/04/16 05:14:44;;;;;;;3.95;2.90;;;;;;;7.96;77.75;98988.67;1739231;80;21917;-66
2021/04/16 05:17:11;;;;;;;6.00;3.70;;;;;;;7.83;77.34;98960.75;1740704;80;21165;-66
2021/04/16 05:19:39;;;;;;;4.03;2.87;;;;;;;7.91;76.90;98987.84;1750574;80;21699;-66
2021/04/16 05:22:07;;;;;;;5.20;2.65;;;;;;;7.86;76.95;98982.45;1752145;80;21160;-66
2021/04/16 05:24:35;;;;;;;4.08;2.80;;;;;;;7.90;76.84;98986.25;1751409;82;21648;-66
2021/04/16 05:27:06;;;;;;;3.70;2.83;;;;;;;7.92;76.73;98984.88;1750963;80;21197;-66
2021/04/16 05:29:33;;;;;;;3.92;3.20;;;;;;;7.89;76.87;98985.97;1751324;80;21149;-66
2021/04/16 05:32:01;;;;;;;4.20;2.87;;;;;;;7.90;77.04;98989.74;1751805;80;21629;-67
2021/04/16 05:34:29;;;;;;;4.08;2.22;;;;;;;7.98;76.74;98991.91;1751742;82;21149;-66
2021/04/16 05:36:57;;;;;;;3.58;2.40;;;;;;;8.03;75.96;98988.39;1744684;80;21738;-66
2021/04/16 05:39:24;;;;;;;5.35;3.25;;;;;;;8.05;75.93;98992.17;1752093;82;21711;-66
2021/04/16 05:41:52;;;;;;;4.97;3.60;;;;;;;8.03;75.81;98991.10;1752191;82;21596;-66
2021/04/16 05:44:19;;;;;;;3.67;2.60;;;;;;;8.07;75.71;98990.02;1747903;82;21192;-67
2021/04/16 05:46:46;;;;;;;5.35;3.20;;;;;;;8.12;75.68;98994.87;1687224;84;21590;-66
2021/04/16 05:49:15;;;;;;;5.55;3.70;;;;;;;8.17;75.12;98988.64;1749791;82;21232;-66
2021/04/16 05:51:42;;;;;;;4.60;3.20;;;;;;;8.17;75.21;98985.92;1744002;80;21307;-66
2021/04/16 05:54:10;;;;;;;8.38;5.05;;;;;;;8.15;74.96;98986.76;1742493;80;21144;-66
2021/04/16 05:56:37;;;;;;;3.15;2.50;;;;;;;8.21;75.12;98986.47;1752160;82;21146;-66
2021/04/16 05:59:05;;;;;;;3.42;2.47;;;;;;;8.29;74.71;98987.84;1712371;84;21597;-65
2021/04/16 06:01:33;;;;;;;3.22;2.12;;;;;;;8.30;74.21;98989.45;1681812;83;21307;-66
2021/04/16 06:04:01;;;;;;;3.75;2.00;;;;;;;8.22;74.09;98988.07;1683766;83;21308;-66
2021/04/16 06:06:28;;;;;;;3.77;2.45;;;;;;;8.19;74.37;98986.45;1680267;83;21155;-66
2021/04/16 06:08:56;;;;;;;2.58;1.98;;;;;;;8.26;74.46;98989.16;1740600;82;21145;-66
2021/04/16 06:11:24;;;;;;;2.83;2.25;;;;;;;8.36;74.23;98989.72;1740603;82;21282;-66
2021/04/16 06:13:51;;;;;;;3.30;2.15;;;;;;;8.40;74.22;98989.41;1740941;82;21186;-66
2021/04/16 06:16:19;;;;;;;2.87;2.10;;;;;;;8.44;74.00;98986.42;1741093;80;21802;-66
2021/04/16 06:18:47;;;;;;;2.45;1.77;;;;;;;8.55;73.70;98978.53;1740110;80;21149;-66
2021/04/16 06:21:16;;;;;;;4.22;2.60;;;;;;;8.71;73.61;98987.44;1739917;80;21172;-67
2021/04/16 06:23:43;;;;;;;2.98;2.02;;;;;;;8.77;72.98;98991.74;1739777;82;21168;-67
2021/04/16 06:26:11;;;;;;;2.40;1.70;;;;;;;8.79;72.19;98993.62;1740289;80;21165;-66
2021/04/16 06:28:38;;;;;;;2.47;1.80;;;;;;;8.83;71.72;98991.98;1738858;80;21188;-66
2021/04/16 06:31:06;;;;;;;3.83;2.50;;;;;;;8.86;71.80;98999.02;1744242;82;21165;-66
2021/04/16 06:33:34;;;;;;;3.65;2.58;;;;;;;8.81;71.97;99002.31;1742815;80;21299;-65
2021/04/16 06:36:05;;;;;;;4.78;3.20;;;;;;;8.76;71.76;99002.32;1741548;80;21145;-64
2021/04/16 06:38:37;;;;;;;4.70;3.08;;;;;;;8.81;72.37;99006.38;1740583;82;21734;-64
2021/04/16 06:41:13;;;;;;;4.92;3.00;;;;;;;8.87;72.36;99010.69;1735010;80;21156;-64
2021/04/16 06:43:54;;;;;;;4.10;2.95;;;;;;;8.89;72.21;99008.53;1765577;79;23114;-63
2021/04/16 06:46:36;;;;;;;4.20;2.92;;;;;;;8.84;72.53;99012.61;1665977;85;21238;-63
2021/04/16 06:49:24;;;;;;;5.12;3.90;;;;;;;8.89;72.36;99008.53;1637805;85;21143;-64
2021/04/16 06:52:15;;;;;;;7.40;5.45;;;;;;;8.94;72.13;99005.23;1653850;85;21204;-64
2021/04/16 06:55:12;;;;;;;6.72;4.55;;;;;;;8.95;72.17;99006.05;1662702;85;21326;-63
2021/04/16 06:57:47;;;;;;;5.97;3.85;;;;;;;8.90;72.02;99007.42;1667321;85;21478;-63
2021/04/16 07:00:47;;;;;;;4.37;3.12;;;;;;;8.98;71.87;99013.63;1665452;85;21589;-63
2021/04/16 07:03:22;;;;;;;4.60;3.20;;;;;;;9.02;71.62;99011.99;1652628;85;21862;-63
2021/04/16 07:06:02;;;;;;;5.00;3.77;;;;;;;8.91;71.75;99013.94;1658847;84;21714;-63
2021/04/16 07:08:39;;;;;;;4.12;2.80;;;;;;;8.86;72.11;99019.38;1663996;84;21211;-64
2021/04/16 07:11:31;;;;;;;7.87;4.03;;;;;;;8.83;71.71;99017.22;1667976;85;21196;-63
2021/04/16 07:13:59;;;;;;;5.67;3.98;;;;;;;8.81;72.37;99017.23;1626521;85;21185;-64
2021/04/16 07:16:27;;;;;;;5.85;4.10;;;;;;;8.82;72.58;99021.59;1669081;85;21246;-63
2021/04/16 07:18:58;;;;;;;6.90;4.78;;;;;;;8.86;72.64;99022.09;1628507;85;21714;-64
2021/04/16 07:21:25;;;;;;;4.65;3.83;;;;;;;8.92;72.52;99022.36;1670989;85;21623;-64
2021/04/16 07:24:03;;;;;;;4.55;3.40;;;;;;;9.00;72.50;99025.83;1663569;85;21164;-63
2021/04/16 07:26:43;;;;;;;5.70;4.12;;;;;;;9.04;72.58;99026.63;1667094;85;21323;-63
2021/04/16 07:29:40;;;;;;;5.97;4.55;;;;;;;9.00;72.39;99030.44;1676261;85;21609;-64
2021/04/16 07:32:19;;;;;;;5.30;4.22;;;;;;;8.97;72.23;99030.46;1667804;85;21186;-64
2021/04/16 07:34:47;;;;;;;6.05;4.28;;;;;;;8.98;72.40;99025.31;1697923;83;21152;-64
2021/04/16 07:37:20;;;;;;;6.60;4.72;;;;;;;8.84;73.11;99023.47;1671816;84;21710;-62
2021/04/16 07:40:02;;;;;;;5.45;4.53;;;;;;;8.80;73.30;99031.35;1664487;85;21180;-63
2021/04/16 07:42:41;;;;;;;6.83;4.72;;;;;;;8.83;73.31;99032.15;1643150;85;21216;-63
2021/04/16 07:45:38;;;;;;;5.55;4.40;;;;;;;8.90;73.23;99033.20;1693620;84;21133;-64
2021/04/16 07:48:36;;;;;;;6.95;4.87;;;;;;;8.90;73.46;99028.59;1702587;84;21177;-64
2021/04/16 07:51:07;;;;;;;6.75;5.37;;;;;;;8.92;73.27;99028.33;1708261;84;21312;-63
2021/04/16 07:53:45;;;;;;;5.65;4.60;;;;;;;8.98;73.05;99030.73;1664684;85;21310;-63
2021/04/16 07:56:19;;;;;;;8.95;5.20;;;;;;;9.05;72.97;99035.05;1667611;85;21347;-63
2021/04/16 07:59:10;;;;;;;7.90;6.33;;;;;;;8.96;72.39;99039.69;1698394;82;21117;-63
2021/04/16 08:01:37;;;;;;;6.62;5.10;;;;;;;8.95;72.43;99034.02;1718701;82;21122;-63
2021/04/16 08:04:30;;;;;;;6.50;4.28;;;;;;;8.98;72.36;99032.64;1675062;84;21693;-63
2021/04/16 08:07:17;;;;;;;5.60;4.80;;;;;;;8.98;72.31;99038.06;1702280;82;21195;-63
2021/04/16 08:09:45;;;;;;;7.10;5.05;;;;;;;8.97;72.40;99035.08;1743746;82;21197;-63
2021/04/16 08:12:16;;;;;;;5.20;4.20;;;;;;;8.84;71.97;99013.97;1683224;84;21161;-63
2021/04/16 08:14:44;;;;;;;8.25;5.47;;;;;;;9.05;72.02;99039.12;1654350;85;21165;-64
2021/04/16 08:17:30;;;;;;;8.28;5.62;;;;;;;9.02;71.87;99045.92;1643297;87;21675;-63
2021/04/16 08:20:27;;;;;;;11.60;7.15;;;;;;;8.93;72.09;99045.67;1664099;85;21295;-64
2021/04/16 08:22:58;;;;;;;8.93;5.62;;;;;;;8.86;72.32;99043.80;1638057;86;21173;-64
2021/04/16 08:25:43;;;;;;;7.17;5.28;;;;;;;8.94;72.44;99039.70;1650604;86;21663;-64
2021/04/16 08:28:15;;;;;;;7.95;5.37;;;;;;;8.98;72.23;99034.81;1666850;85;21212;-64
2021/04/16 08:30:51;;;;;;;10.05;6.97;;;;;;;8.93;72.16;99045.67;1658502;86;21585;-64
2021/04/16 08:33:29;;;;;;;9.70;6.57;;;;;;;8.86;72.37;99032.13;1652126;86;21182;-64
2021/04/16 08:36:22;;;;;;;6.80;4.60;;;;;;;8.91;72.53;99047.05;1660602;86;22002;-65
2021/04/16 08:39:00;;;;;;;6.42;4.90;;;;;;;8.96;72.24;99048.41;1692091;84;21158;-64
2021/04/16 08:41:31;;;;;;;5.70;4.50;;;;;;;8.99;71.89;99050.02;1665649;84;21193;-69
2021/04/16 08:44:01;;;;;;;6.87;4.15;;;;;;;8.98;71.82;99046.20;1662847;84;22011;-66
2021/04/16 08:46:38;;;;;;;6.08;5.15;;;;;;;9.04;71.73;99049.70;1634053;87;21775;-65
2021/04/16 08:49:12;;;;;;;6.17;5.08;;;;;;;9.11;71.54;99051.57;1706796;84;21292;-65
2021/04/16 08:51:50;;;;;;;7.10;5.50;;;;;;;9.17;71.37;99051.30;1686000;84;21656;-65
2021/04/16 08:54:31;;;;;;;6.45;5.28;;;;;;;9.20;71.30;99047.20;1693996;84;21522;-65
2021/04/16 08:57:09;;;;;;;6.42;5.25;;;;;;;9.15;70.78;99048.03;1708891;83;21287;-64
2021/04/16 08:59:53;;;;;;;6.70;5.70;;;;;;;9.11;70.51;99048.31;1685546;85;21668;-64
2021/04/16 09:02:28;;;;;;;5.10;3.77;;;;;;;9.12;70.70;99051.84;1685548;84;21200;-64
2021/04/16 09:05:18;;;;;;;6.10;4.83;;;;;;;9.11;70.88;99044.78;1686289;84;21153;-64
2021/04/16 09:08:09;;;;;;;6.53;4.87;;;;;;;9.03;70.75;99051.62;1690967;84;21612;-64
2021/04/16 09:10:43;;;;;;;6.47;5.33;;;;;;;9.07;70.93;99049.17;1649284;85;21698;-65
2021/04/16 09:15:31;;;;;;;6.67;5.55;;;;;;;9.27;70.81;99057.21;1814091;79;22961;-65
2021/04/16 09:18:05;;;;;;;6.37;5.58;;;;;;;9.20;70.89;99056.16;1794272;80;21340;-64
2021/04/16 09:20:41;;;;;;;6.60;4.95;;;;;;;9.22;70.57;99059.40;1803192;78;21704;-68
2021/04/16 09:23:36;;;;;;;5.60;4.85;;;;;;;9.24;70.28;99060.49;1823595;78;21141;-64
2021/04/16 09:26:04;;;;;;;7.12;5.40;;;;;;;9.29;70.50;99057.19;1816800;77;21275;-63
2021/04/16 09:28:49;;;;;;;6.05;5.12;;;;;;;9.38;70.32;99054.72;1807014;78;21148;-63
2021/04/16 09:31:41;;;;;;;6.72;5.37;;;;;;;9.45;70.18;99059.29;1811895;78;21141;-63
2021/04/16 09:34:21;;;;;;;6.62;5.22;;;;;;;9.45;69.57;99056.03;1794251;78;21164;-65
2021/04/16 09:37:10;;;;;;;6.08;4.78;;;;;;;9.54;70.12;99055.41;1818442;77;21302;-64
2021/04/16 09:39:40;;;;;;;5.10;4.40;;;;;;;9.62;69.28;99055.64;1806630;78;21287;-63
2021/04/16 09:42:28;;;;;;;6.35;4.37;;;;;;;9.63;69.06;99055.11;1805737;77;21185;-63
2021/04/16 09:44:57;;;;;;;6.58;5.47;;;;;;;9.68;69.50;99063.20;1741307;80;21194;-64
2021/04/16 09:47:43;;;;;;;10.13;6.78;;;;;;;9.71;68.70;99056.66;1794244;80;21284;-65
2021/04/16 09:50:36;;;;;;;8.73;6.25;;;;;;;9.76;68.67;99063.97;1806969;78;21124;-64
2021/04/16 09:53:32;;;;;;;8.33;6.40;;;;;;;9.67;68.63;99062.39;1794796;80;21290;-63
2021/04/16 09:56:11;;;;;;;16.60;8.70;;;;;;;9.57;68.96;99065.17;1810675;77;21202;-63
2021/04/16 09:58:53;;;;;;;10.38;7.45;;;;;;;9.45;69.15;99060.11;1826663;78;21294;-63
2021/04/16 10:01:25;;;;;;;8.05;5.97;;;;;;;9.41;69.46;99056.86;1811733;78;21287;-64
2021/04/16 10:03:56;;;;;;;11.25;6.87;;;;;;;9.50;69.75;99066.85;1796705;78;21133;-64
2021/04/16 10:06:40;;;;;;;9.08;6.97;;;;;;;9.55;69.53;99068.73;1813764;77;21291;-64
2021/04/16 10:09:25;;;;;;;9.83;7.12;;;;;;;9.54;69.52;99069.00;1797124;78;21156;-64
2021/04/16 10:11:59;;;;;;;10.58;7.60;;;;;;;9.48;69.51;99066.88;1821928;78;21311;-64
2021/04/16 10:14:36;;;;;;;9.10;7.33;;;;;;;9.48;69.59;99065.52;1804610;79;21121;-64
2021/04/16 10:17:18;;;;;;;9.85;7.53;;;;;;;9.56;69.41;99068.19;1808282;78;21614;-63
2021/04/16 10:19:51;;;;;;;9.73;7.50;;;;;;;9.48;69.32;99065.52;1798133;79;21121;-65
2021/04/16 10:22:31;;;;;;;8.70;7.15;;;;;;;9.41;69.53;99070.45;1810345;78;21845;-64
2021/04/16 11:32:47;;;;;;;7.78;6.60;;;;;;;10.62;65.64;99072.25;1701729;83;21197;-63
2021/04/16 12:38:11;;;;;;;8.83;6.92;;;;;;;11.01;62.48;99069.91;1744041;82;21213;-62
2021/04/16 12:40:36;;;;;;;7.97;6.85;;;;;;;10.92;63.02;99063.73;1743518;82;21283;-61
2021/04/16 12:43:05;;;;;;;7.97;5.15;;;;;;;10.87;63.11;99073.89;1752873;81;21569;-63
2021/04/16 12:45:33;;;;;;;7.00;6.12;;;;;;;10.83;62.96;99067.39;1744285;81;21165;-64
2021/04/16 12:48:00;;;;;;;8.85;6.87;;;;;;;10.89;62.87;99059.42;1689549;83;21517;-63
2021/04/16 12:50:30;;;;;;;7.67;6.03;;;;;;;10.87;63.47;99066.53;1748175;81;21276;-64
2021/04/16 12:52:58;;;;;;;6.58;5.17;;;;;;;10.87;63.28;99066.53;1763261;81;21198;-62
2021/04/16 12:55:26;;;;;;;7.70;6.15;;;;;;;10.89;63.13;99062.14;1749155;81;21504;-62
2021/04/16 12:58:02;;;;;;;11.90;8.10;;;;;;;10.88;63.11;99060.52;1744070;81;21593;-63
2021/04/16 13:00:42;;;;;;;7.87;6.75;;;;;;;10.78;63.32;99061.99;1739862;82;21549;-63
2021/04/16 13:03:17;;;;;;;7.70;6.35;;;;;;;10.73;63.39;99064.79;1742398;81;21709;-62
2021/04/16 13:05:46;;;;;;;7.42;6.47;;;;;;;10.70;63.18;99063.43;1741463;82;21162;-62
2021/04/16 13:08:14;;;;;;;11.22;7.75;;;;;;;10.70;63.37;99066.73;1741621;82;21641;-62
2021/04/16 13:10:41;;;;;;;11.70;9.83;;;;;;;10.60;63.71;99063.55;1758260;81;21660;-62
2021/04/16 13:13:08;;;;;;;25.20;18.57;;;;;;;10.59;64.02;99059.77;1692924;84;21617;-63
2021/04/16 13:15:35;;;;;;;17.35;12.95;;;;;;;10.60;64.04;99060.00;1742866;81;21312;-62
2021/04/16 13:18:24;;;;;;;40.75;30.97;;;;;;;10.68;63.59;99056.66;1740951;81;21154;-61
2021/04/16 13:20:51;;;;;;;21.02;18.82;;;;;;;10.76;63.57;99058.77;1745090;81;21264;-62
2021/04/16 13:23:20;;;;;;;32.95;29.57;;;;;;;10.67;62.89;99064.56;1742958;82;21174;-63
2021/04/16 13:25:48;;;;;;;12.35;10.43;;;;;;;10.56;64.07;99064.42;1742316;81;21122;-61
2021/04/16 13:28:16;;;;;;;12.18;8.03;;;;;;;10.56;64.12;99066.58;1768429;81;21614;-62
2021/04/16 13:30:43;;;;;;;8.70;7.08;;;;;;;10.61;64.01;99062.45;1753889;81;21543;-61
2021/04/16 13:33:16;;;;;;;7.28;5.47;;;;;;;10.62;63.98;99064.08;1740816;82;21181;-60
2021/04/16 13:35:49;;;;;;;6.80;5.80;;;;;;;10.65;63.42;99061.33;1740699;82;21168;-61
2021/04/16 13:38:19;;;;;;;5.85;5.10;;;;;;;10.66;63.53;99058.33;1743903;81;21166;-61
2021/04/16 13:40:46;;;;;;;7.70;5.90;;;;;;;10.69;63.89;99059.11;1754134;81;21170;-60
2021/04/16 13:43:14;;;;;;;6.67;5.50;;;;;;;10.72;63.76;99062.61;1740984;82;21291;-60
2021/04/16 13:45:41;;;;;;;5.95;5.35;;;;;;;10.79;63.63;99063.63;1741675;81;21596;-60
2021/04/16 13:48:09;;;;;;;6.30;5.10;;;;;;;10.82;63.56;99066.58;1754134;81;21164;-60
2021/04/16 13:50:36;;;;;;;6.17;5.25;;;;;;;10.87;63.43;99060.27;1741144;81;21292;-61
2021/04/16 13:53:04;;;;;;;5.95;5.35;;;;;;;10.91;63.11;99061.32;1743165;80;21534;-62
2021/04/16 13:55:31;;;;;;;6.33;5.72;;;;;;;10.94;63.08;99066.18;1742573;81;21597;-62
2021/04/16 13:57:59;;;;;;;7.75;5.90;;;;;;;10.90;62.93;99064.59;1759211;81;21174;-63
2021/04/16 14:00:30;;;;;;;14.95;12.43;;;;;;;10.84;63.15;99067.09;1742080;81;21312;-63
2021/04/16 14:03:16;;;;;;;68.50;41.92;;;;;;;10.79;63.01;99067.70;1755735;80;21694;-61
2021/04/16 14:05:49;;;;;;;87.53;59.27;;;;;;;10.53;63.31;99040.48;1747447;82;21165;-62
2021/04/16 14:08:31;;;;;;;21.68;17.80;;;;;;;10.71;64.06;99066.42;1678966;84;21311;-62
2021/04/16 14:10:59;;;;;;;36.15;29.85;;;;;;;10.83;63.56;99068.20;1764366;80;21142;-62
2021/04/16 14:13:28;;;;;;;6.35;5.65;;;;;;;10.83;63.71;99072.84;1748552;80;21208;-64
2021/04/16 14:15:57;;;;;;;5.53;4.90;;;;;;;10.80;63.47;99069.34;1755365;80;21155;-65